»·PEaware :: AAL394 KTUL-KDFW

AAL394 :: KTUL-KDFW

FLIGHT INFORMATION

Flight Status: Arrived
Operator:
American Airlines
More flights by this operator :: More flights under this callsign
Pilot: John H. (7647)
Aircraft: BOEING 737-800
(B738)
More flights by this aircraft type
Origin: KTUL Tulsa Intl
United States
Destination: KDFW Dallas-Ft Worth Intl
United States
More flights between these airports :: More routes between these airports
Route: PEJAY AXXEE BRDJE3
File this flight plan on PilotEdge
Remarks: PBN / A1B1C1D1S1S2 DOF / 180923 REG / N806SB EET / KZFW0006 OPR / AAL PER / C RMK / TCAS SIMBRIEF
Altitude:
(Current/Filed)
22,000ft
Speed:
(Current/Filed)
436kts
Departed: 23-Sep-18 03:48 PM
Arrived: 23-Sep-18 04:45 PM
Distance/Time
Traveled:
206nm/0:57
Distance/Time
To Go:
Arrived

Flight Plot

Page will automatically refresh every two minutes.

Flight plan parsing failed; only flown route is shown


Map Options




Map Legend


Flown Route
Filed Route
Departure Airport
Arrival Airport
Navaid (VOR, NDB)
Fix

Horizontal Profiles

Position Reports

Time Latitude Longitude Heading Altitude Ground
Speed
23-Sep-18 15:41 36.190543 -95.886548 311 654ft 0kts
23-Sep-18 15:42 36.190543 -95.886548 311 654ft 0kts
23-Sep-18 15:43 36.190351 -95.886051 273 653ft 2kts
23-Sep-18 15:44 36.190543 -95.885437 222 651ft 0kts
23-Sep-18 15:45 36.190588 -95.885390 220 651ft 0kts
23-Sep-18 15:46 36.190558 -95.885422 220 651ft 1kts
23-Sep-18 15:47 36.189403 -95.885704 183 652ft 8kts
23-Sep-18 15:48 36.186725 -95.886436 358 650ft 9kts
23-Sep-18 15:49 36.188138 -95.883099 35 647ft 12kts
23-Sep-18 15:50 36.198727 -95.882301 2 647ft 115kts
23-Sep-18 15:51 36.240714 -95.880739 358 1888ft 159kts
23-Sep-18 15:52 36.284580 -95.894236 321 3092ft 153kts
23-Sep-18 15:53 36.298897 -95.949521 247 4488ft 192kts
23-Sep-18 15:54 36.254046 -95.978133 171 5240ft 256kts
23-Sep-18 15:55 36.206488 -95.946897 126 8143ft 220kts
23-Sep-18 15:56 36.171134 -95.885763 130 10218ft 235kts
23-Sep-18 15:57 36.111663 -95.849905 162 12066ft 258kts
23-Sep-18 15:58 36.040426 -95.818244 162 13864ft 290kts
23-Sep-18 15:59 35.958202 -95.781796 162 15510ft 329kts
23-Sep-18 16:00 35.875382 -95.745081 162 17689ft 341kts
23-Sep-18 16:01 35.784915 -95.705114 162 19812ft 353kts
23-Sep-18 16:02 35.691542 -95.663968 162 21755ft 365kts
23-Sep-18 16:03 35.589265 -95.656555 189 22004ft 394kts
23-Sep-18 16:04 35.480462 -95.676445 189 21995ft 401kts
23-Sep-18 16:05 35.370450 -95.696335 189 21994ft 400kts
23-Sep-18 16:06 35.260660 -95.716048 189 21994ft 400kts
23-Sep-18 16:07 35.151466 -95.735537 189 21995ft 398kts
23-Sep-18 16:08 35.042073 -95.754982 189 21991ft 398kts
23-Sep-18 16:09 34.932857 -95.774343 189 21991ft 398kts
23-Sep-18 16:10 34.828226 -95.792833 189 21996ft 398kts
23-Sep-18 16:11 34.721813 -95.811591 189 21995ft 398kts
23-Sep-18 16:12 34.613886 -95.830540 189 21997ft 398kts
23-Sep-18 16:13 34.506760 -95.849308 189 21993ft 397kts
23-Sep-18 16:14 34.400019 -95.867964 189 21995ft 397kts
23-Sep-18 16:15 34.294283 -95.891815 200 21980ft 394kts
23-Sep-18 16:16 34.192895 -95.936663 201 21965ft 394kts
23-Sep-18 16:17 34.092382 -95.980809 200 21963ft 394kts
23-Sep-18 16:18 33.990584 -96.025202 201 21964ft 394kts
23-Sep-18 16:19 33.890412 -96.068699 201 21966ft 393kts
23-Sep-18 16:20 33.797749 -96.108656 200 21968ft 393kts
23-Sep-18 16:21 33.697276 -96.151361 201 21967ft 393kts
23-Sep-18 16:22 33.595985 -96.194294 200 21975ft 399kts
23-Sep-18 16:23 33.492483 -96.238035 200 21009ft 385kts
23-Sep-18 16:24 33.407797 -96.309761 228 20443ft 391kts
23-Sep-18 16:25 33.340278 -96.402842 228 19420ft 364kts
23-Sep-18 16:26 33.276807 -96.491672 228 17074ft 333kts
23-Sep-18 16:27 33.216403 -96.572281 226 15754ft 317kts
23-Sep-18 16:28 33.158563 -96.649547 227 14587ft 317kts
23-Sep-18 16:29 33.104399 -96.723857 226 13579ft 287kts
23-Sep-18 16:30 33.053238 -96.793721 226 12602ft 289kts
23-Sep-18 16:31 33.001877 -96.863409 226 11575ft 267kts
23-Sep-18 16:32 32.944877 -96.905833 183 10716ft 247kts
23-Sep-18 16:33 32.879512 -96.910582 182 10002ft 246kts
23-Sep-18 16:34 32.812340 -96.915262 181 9290ft 247kts
23-Sep-18 16:35 32.745569 -96.916696 177 8592ft 247kts
23-Sep-18 16:36 32.676308 -96.916370 178 7866ft 253kts
23-Sep-18 16:37 32.606773 -96.916182 179 7134ft 253kts
23-Sep-18 16:38 32.563284 -96.956302 289 6757ft 247kts
23-Sep-18 16:39 32.598181 -97.019884 318 5935ft 215kts
23-Sep-18 16:40 32.650501 -97.032461 0 4905ft 184kts
23-Sep-18 16:41 32.699822 -97.031297 0 3985ft 178kts
23-Sep-18 16:42 32.748599 -97.030788 0 3062ft 175kts
23-Sep-18 16:43 32.796085 -97.030514 1 2127ft 158kts
23-Sep-18 16:44 32.836702 -97.030350 359 1378ft 144kts
23-Sep-18 16:45 32.875278 -97.030143 0 631ft 131kts
23-Sep-18 16:46 32.904753 -97.030293 313 575ft 43kts
23-Sep-18 16:47 32.907321 -97.035128 329 590ft 13kts
23-Sep-18 16:48 32.909037 -97.037392 269 590ft 14kts
23-Sep-18 16:49 32.909081 -97.043905 271 593ft 24kts
23-Sep-18 16:50 32.904632 -97.047599 180 604ft 27kts
23-Sep-18 16:51 32.900131 -97.045842 138 603ft 6kts
23-Sep-18 16:52 32.899991 -97.045713 144 603ft 0kts

Navigation Log

Ident Type
Flight plan parsing failed, navigation log unavailable